Time;durP1;ratioP1;P1;durP2;ratioP2;P2;SDS_P1;SDS_P2;PMS_P1;PMS_P2;Temp;Humidity;BMP_temperature;BMP_pressure;BME280_temperature;BME280_humidity;BME280_pressure;Samples;Min_cycle;Max_cycle;Signal;HPM_P1;HPM_P2
2021/12/18 00:01:08;;;;;;;96.33;30.60;;;3.60;99.90;;;;;;5154548;27;20069;-74
2021/12/18 00:03:35;;;;;;;89.87;30.03;;;3.50;99.90;;;;;;5154423;27;20050;-74
2021/12/18 00:06:03;;;;;;;90.27;27.77;;;3.60;99.90;;;;;;5153376;27;20047;-74
2021/12/18 00:08:30;;;;;;;89.07;28.60;;;3.60;99.90;;;;;;5153870;27;20520;-74
2021/12/18 00:10:59;;;;;;;90.03;30.23;;;3.60;99.90;;;;;;5155993;27;20075;-76
2021/12/18 00:13:26;;;;;;;83.47;29.83;;;3.60;99.90;;;;;;5154410;27;20047;-74
2021/12/18 00:15:53;;;;;;;89.33;28.87;;;3.60;99.90;;;;;;5152966;27;20456;-74
2021/12/18 00:18:20;;;;;;;98.32;32.15;;;3.60;99.90;;;;;;5153914;27;20107;-74
2021/12/18 00:20:48;;;;;;;81.63;28.77;;;3.70;99.90;;;;;;5154138;27;20051;-74
2021/12/18 00:23:15;;;;;;;76.83;30.17;;;3.60;99.90;;;;;;5153407;27;20051;-74
2021/12/18 00:25:43;;;;;;;85.87;30.40;;;3.60;99.90;;;;;;5153750;27;20728;-74
2021/12/18 00:28:12;;;;;;;84.43;30.83;;;3.60;99.90;;;;;;5154226;27;20103;-74
2021/12/18 00:30:39;;;;;;;90.47;31.17;;;3.60;99.90;;;;;;5154429;27;20042;-76
2021/12/18 00:33:07;;;;;;;88.77;30.10;;;3.60;99.90;;;;;;5153699;27;20456;-74
2021/12/18 00:35:34;;;;;;;85.00;29.87;;;3.50;99.90;;;;;;5152978;27;20047;-75
2021/12/18 00:38:02;;;;;;;82.90;28.33;;;3.60;99.90;;;;;;5153589;27;20050;-76
2021/12/18 00:40:36;;;;;;;91.30;28.77;;;3.60;99.90;;;;;;5153658;27;20043;-74
2021/12/18 00:43:20;;;;;;;74.88;27.75;;;3.60;99.90;;;;;;5153416;27;20523;-74
2021/12/18 00:45:48;;;;;;;71.40;26.70;;;3.60;99.90;;;;;;5154006;27;20494;-74
2021/12/18 00:48:15;;;;;;;81.80;27.48;;;3.60;99.90;;;;;;5153815;27;20055;-73
2021/12/18 00:50:42;;;;;;;77.70;25.27;;;3.60;99.90;;;;;;5153356;27;20047;-76
2021/12/18 00:53:09;;;;;;;74.80;26.40;;;3.70;99.90;;;;;;5154096;27;20047;-74
2021/12/18 00:55:37;;;;;;;68.33;25.50;;;3.60;99.90;;;;;;5153966;27;20050;-74
2021/12/18 00:58:05;;;;;;;67.57;23.73;;;3.60;99.90;;;;;;5153804;27;20051;-74
2021/12/18 01:00:32;;;;;;;63.95;23.65;;;3.60;99.90;;;;;;5153219;27;20046;-74
2021/12/18 01:03:03;;;;;;;69.17;23.97;;;3.60;99.90;;;;;;5154045;27;20075;-74
2021/12/18 01:05:32;;;;;;;66.15;24.80;;;3.70;99.90;;;;;;5153304;27;20046;-74
2021/12/18 01:08:00;;;;;;;69.88;23.67;;;3.60;99.90;;;;;;5152997;27;20039;-75
2021/12/18 01:10:47;;;;;;;67.47;26.02;;;3.60;99.90;;;;;;5153293;27;20046;-74
2021/12/18 01:13:19;;;;;;;;;;;3.60;99.90;;;;;;5153784;27;20149;-74
2021/12/18 01:15:50;;;;;;;70.88;23.95;;;3.60;99.90;;;;;;5152574;27;19966;-75
2021/12/18 01:23:47;;;;;;;81.82;28.73;;;3.50;99.90;;;;;;5153514;27;20045;-76
2021/12/18 01:26:14;;;;;;;70.32;23.70;;;3.50;99.90;;;;;;5152475;27;20095;-75
2021/12/18 01:28:41;;;;;;;63.80;22.53;;;3.60;99.90;;;;;;5153816;27;20514;-76
2021/12/18 01:31:09;;;;;;;60.13;20.40;;;3.50;99.90;;;;;;5153541;27;20107;-72
2021/12/18 01:33:38;;;;;;;55.80;19.50;;;3.40;99.90;;;;;;5153560;27;20082;-74
2021/12/18 01:36:05;;;;;;;52.83;18.33;;;3.40;99.90;;;;;;5152782;27;20574;-73
2021/12/18 01:38:32;;;;;;;54.17;19.43;;;3.40;99.90;;;;;;5149242;22;20039;-69
2021/12/18 01:41:02;;;;;;;47.30;17.30;;;3.50;99.90;;;;;;5089388;28;20071;-67
2021/12/18 01:46:38;;;;;;;46.07;16.80;;;3.50;99.90;;;;;;5076577;28;20040;-67
2021/12/18 01:52:17;;;;;;;49.53;17.30;;;3.50;99.90;;;;;;5046457;28;20049;-67
2021/12/18 01:54:45;;;;;;;57.80;19.03;;;3.50;99.90;;;;;;5046222;28;20061;-67
2021/12/18 01:57:13;;;;;;;50.77;18.00;;;3.50;99.90;;;;;;5057685;28;20070;-67
2021/12/18 01:59:44;;;;;;;48.07;17.57;;;3.60;99.90;;;;;;5068800;28;20048;-66
2021/12/18 02:02:11;;;;;;;44.85;17.95;;;3.50;99.90;;;;;;5069042;28;20307;-67
2021/12/18 02:04:40;;;;;;;48.83;17.95;;;3.60;99.90;;;;;;5068786;28;20106;-67
2021/12/18 02:07:07;;;;;;;49.53;17.83;;;3.60;99.90;;;;;;5069042;28;20130;-67
2021/12/18 02:09:52;;;;;;;46.07;17.20;;;3.60;99.90;;;;;;5068650;28;20048;-67
2021/12/18 02:12:25;;;;;;;46.10;18.33;;;3.60;99.90;;;;;;5068904;28;20142;-67
2021/12/18 02:20:40;;;;;;;43.87;17.27;;;3.60;99.90;;;;;;5066899;28;20177;-67
2021/12/18 02:23:08;;;;;;;46.95;18.20;;;3.60;99.90;;;;;;5072506;28;20056;-67
2021/12/18 02:25:36;;;;;;;46.05;18.33;;;3.60;99.90;;;;;;5071306;28;20044;-67
2021/12/18 02:28:06;;;;;;;54.85;18.17;;;3.60;99.90;;;;;;5071820;28;20052;-66
2021/12/18 02:30:33;;;;;;;50.42;17.70;;;3.70;99.90;;;;;;5073555;28;20049;-67
2021/12/18 02:33:00;;;;;;;49.38;17.17;;;3.60;99.90;;;;;;5077099;28;20095;-67
2021/12/18 02:35:29;;;;;;;46.97;17.83;;;3.60;99.90;;;;;;5071875;28;20052;-67
2021/12/18 02:38:11;;;;;;;44.95;17.45;;;3.60;99.90;;;;;;5071845;28;20060;-67
2021/12/18 02:43:35;;;;;;;50.45;18.60;;;3.60;99.90;;;;;;5071804;28;20037;-67
2021/12/18 02:46:06;;;;;;;55.33;19.07;;;3.60;99.90;;;;;;5070869;28;20101;-67
2021/12/18 02:48:35;;;;;;;44.63;17.52;;;3.60;99.90;;;;;;5072037;28;20114;-67
2021/12/18 02:51:04;;;;;;;45.85;18.08;;;3.50;99.90;;;;;;5071798;28;20057;-67
2021/12/18 02:53:33;;;;;;;45.00;17.90;;;3.50;99.90;;;;;;5071485;28;20295;-67
2021/12/18 02:56:04;;;;;;;44.63;17.03;;;3.60;99.90;;;;;;5070588;28;20102;-66
2021/12/18 02:58:32;;;;;;;45.20;18.07;;;3.60;99.90;;;;;;5071549;28;20099;-67
2021/12/18 03:01:00;;;;;;;40.03;16.88;;;3.60;99.90;;;;;;5071366;28;20080;-67
2021/12/18 03:03:31;;;;;;;53.67;20.73;;;3.60;99.90;;;;;;5071661;28;20052;-67
2021/12/18 03:06:11;;;;;;;49.60;19.17;;;3.70;99.90;;;;;;5070615;28;20088;-66
2021/12/18 03:08:48;;;;;;;43.03;18.57;;;3.60;99.90;;;;;;5071721;28;20052;-67
2021/12/18 03:27:33;;;;;;;55.53;18.97;;;3.60;99.90;;;;;;5047415;28;19920;-68
2021/12/18 03:30:00;;;;;;;46.17;18.57;;;3.60;99.90;;;;;;5051022;28;20053;-67
2021/12/18 03:32:27;;;;;;;46.92;18.17;;;3.60;99.90;;;;;;5050305;28;20576;-67
2021/12/18 03:34:55;;;;;;;49.13;18.37;;;3.60;99.90;;;;;;5059447;28;20052;-67
2021/12/18 03:37:22;;;;;;;50.38;18.88;;;3.60;99.90;;;;;;5070644;28;20056;-67
2021/12/18 03:39:50;;;;;;;48.67;19.03;;;3.70;99.90;;;;;;5070443;28;20052;-67
2021/12/18 03:42:17;;;;;;;50.95;18.70;;;3.70;99.90;;;;;;5070415;28;20086;-67
2021/12/18 03:44:45;;;;;;;52.67;19.20;;;3.70;99.90;;;;;;5069921;28;20056;-67
2021/12/18 03:47:12;;;;;;;50.17;20.43;;;3.70;99.90;;;;;;5070389;28;20106;-67
2021/12/18 03:49:39;;;;;;;53.70;19.90;;;3.70;99.90;;;;;;5070576;28;20109;-67
2021/12/18 03:52:07;;;;;;;48.57;19.13;;;3.60;99.90;;;;;;5070481;28;20064;-67
2021/12/18 03:54:34;;;;;;;48.13;18.97;;;3.70;99.90;;;;;;5070070;28;20098;-67
2021/12/18 03:57:02;;;;;;;48.60;20.17;;;3.60;99.90;;;;;;5069471;28;20052;-67
2021/12/18 03:59:29;;;;;;;50.53;18.40;;;3.60;99.90;;;;;;5070168;28;20084;-67
2021/12/18 04:01:57;;;;;;;45.33;17.63;;;3.70;99.90;;;;;;5070067;28;20052;-68
2021/12/18 04:04:25;;;;;;;23.35;11.38;;;3.60;99.90;;;;;;5070127;28;20048;-67
2021/12/18 04:06:52;;;;;;;37.90;17.50;;;3.60;99.90;;;;;;5069130;28;20052;-67
2021/12/18 04:09:19;;;;;;;36.85;15.95;;;3.70;99.90;;;;;;5070378;28;20046;-67
2021/12/18 04:11:46;;;;;;;39.63;16.30;;;3.70;99.90;;;;;;5069928;28;20048;-67
2021/12/18 04:14:17;;;;;;;43.90;18.10;;;3.60;99.90;;;;;;5070059;28;20056;-67
2021/12/18 04:16:45;;;;;;;43.30;17.43;;;3.60;99.90;;;;;;5069283;28;20052;-67
2021/12/18 04:19:13;;;;;;;43.20;17.67;;;3.60;99.90;;;;;;5069822;28;20091;-67
2021/12/18 04:21:40;;;;;;;39.10;17.37;;;3.70;99.90;;;;;;5069478;28;20053;-67
2021/12/18 04:24:08;;;;;;;42.22;17.48;;;3.70;99.90;;;;;;5069839;28;20048;-67
2021/12/18 04:26:36;;;;;;;41.40;17.52;;;3.70;99.90;;;;;;5068673;28;20090;-67
2021/12/18 04:29:05;;;;;;;45.40;17.25;;;3.70;99.90;;;;;;5069788;28;20056;-67
2021/12/18 04:31:33;;;;;;;38.13;16.10;;;3.70;99.90;;;;;;5069690;28;20080;-67
2021/12/18 04:34:00;;;;;;;36.22;15.18;;;3.70;99.90;;;;;;5069534;28;20117;-67
2021/12/18 04:36:29;;;;;;;35.15;16.08;;;3.70;99.90;;;;;;5068786;28;20048;-67
2021/12/18 04:38:56;;;;;;;37.58;17.40;;;3.70;99.90;;;;;;5069888;28;20049;-67
2021/12/18 04:41:34;;;;;;;31.80;15.23;;;3.70;99.90;;;;;;5069554;28;20110;-67
2021/12/18 04:44:01;;;;;;;28.27;13.60;;;3.70;99.90;;;;;;5069212;28;20144;-67
2021/12/18 04:46:28;;;;;;;29.07;14.70;;;3.70;99.90;;;;;;5068458;28;20052;-67
2021/12/18 04:48:55;;;;;;;27.53;14.53;;;3.70;99.90;;;;;;5069676;28;20049;-67
2021/12/18 04:51:22;;;;;;;24.50;12.85;;;3.70;99.90;;;;;;5061673;28;20500;-67
2021/12/18 04:53:50;;;;;;;23.20;11.80;;;3.80;99.90;;;;;;5069167;28;20053;-67
2021/12/18 04:56:17;;;;;;;27.73;12.18;;;3.70;99.90;;;;;;5069181;28;20106;-67
2021/12/18 04:58:44;;;;;;;24.38;12.50;;;3.70;99.90;;;;;;5069501;28;20052;-68
2021/12/18 05:01:11;;;;;;;26.00;11.95;;;3.70;99.90;;;;;;5069321;28;20070;-67
2021/12/18 05:03:40;;;;;;;27.27;12.25;;;3.70;99.90;;;;;;5069266;28;20048;-67
2021/12/18 05:06:07;;;;;;;29.27;13.15;;;3.70;99.90;;;;;;5068474;28;20494;-67
2021/12/18 05:08:34;;;;;;;27.43;13.67;;;3.60;99.90;;;;;;5073505;28;20052;-67
2021/12/18 05:11:02;;;;;;;27.02;13.63;;;3.60;99.90;;;;;;5072017;28;20045;-67
2021/12/18 05:13:29;;;;;;;31.30;14.80;;;3.60;99.90;;;;;;5069056;28;20045;-67
2021/12/18 05:15:56;;;;;;;25.87;13.23;;;3.60;99.90;;;;;;5068198;28;20102;-67
2021/12/18 05:18:23;;;;;;;31.37;14.20;;;3.60;99.90;;;;;;5069180;28;20408;-67
2021/12/18 05:20:50;;;;;;;26.07;13.50;;;3.70;99.90;;;;;;5069164;28;20048;-68
2021/12/18 05:23:17;;;;;;;27.47;14.20;;;3.60;99.90;;;;;;5069355;28;20412;-67
2021/12/18 05:25:44;;;;;;;26.33;12.57;;;3.60;99.90;;;;;;5068286;28;20129;-67
2021/12/18 05:28:13;;;;;;;27.73;14.43;;;3.60;99.90;;;;;;5068822;28;20106;-68
2021/12/18 05:30:40;;;;;;;29.90;13.53;;;3.60;99.90;;;;;;5069134;28;20044;-67
2021/12/18 05:33:07;;;;;;;29.87;12.73;;;3.60;99.90;;;;;;5068820;28;20049;-67
2021/12/18 05:35:34;;;;;;;28.63;13.80;;;3.60;99.90;;;;;;5068375;28;20052;-67
2021/12/18 05:38:05;;;;;;;26.80;13.33;;;3.70;99.90;;;;;;5068918;28;20060;-67
2021/12/18 05:40:33;;;;;;;26.97;13.60;;;3.70;99.90;;;;;;5069030;28;20165;-67
2021/12/18 05:43:00;;;;;;;27.47;13.80;;;3.70;99.90;;;;;;5068684;28;20134;-67
2021/12/18 05:45:29;;;;;;;25.53;13.20;;;3.70;99.90;;;;;;5068171;28;20052;-67
2021/12/18 05:47:57;;;;;;;24.70;12.20;;;3.60;99.90;;;;;;5068776;28;20121;-68
2021/12/18 05:50:27;;;;;;;29.37;13.27;;;3.70;99.90;;;;;;5069188;28;20088;-67
2021/12/18 05:52:54;;;;;;;31.23;13.82;;;3.60;99.90;;;;;;5068962;28;20384;-67
2021/12/18 05:55:23;;;;;;;26.97;12.77;;;3.60;99.90;;;;;;5074319;28;20053;-67
2021/12/18 05:57:50;;;;;;;27.63;14.00;;;3.60;99.90;;;;;;5074193;28;20052;-67
2021/12/18 06:00:18;;;;;;;28.97;14.00;;;3.60;99.90;;;;;;5072702;28;20056;-67
2021/12/18 06:02:47;;;;;;;28.10;14.57;;;3.60;99.90;;;;;;5072386;28;20098;-67
2021/12/18 06:05:14;;;;;;;27.70;14.40;;;3.60;99.90;;;;;;5072111;28;20052;-67
2021/12/18 06:07:53;;;;;;;26.97;14.07;;;3.50;99.90;;;;;;5071992;28;20182;-67
2021/12/18 06:10:21;;;;;;;28.73;14.40;;;3.50;99.90;;;;;;5072453;28;20580;-67
2021/12/18 06:12:49;;;;;;;34.37;15.87;;;3.50;99.90;;;;;;5072578;28;20419;-67
2021/12/18 06:15:16;;;;;;;30.33;15.17;;;3.60;99.90;;;;;;5071453;28;20056;-67
2021/12/18 06:17:43;;;;;;;36.73;16.17;;;3.60;99.90;;;;;;5071941;28;20445;-67
2021/12/18 06:20:12;;;;;;;35.80;16.43;;;3.70;99.90;;;;;;5072491;28;20088;-67
2021/12/18 06:22:39;;;;;;;32.10;15.50;;;3.60;99.90;;;;;;5071814;28;20569;-67
2021/12/18 06:25:07;;;;;;;30.80;14.70;;;3.60;99.90;;;;;;5071324;28;20102;-67
2021/12/18 06:27:34;;;;;;;32.53;14.70;;;3.60;99.90;;;;;;5071878;28;20333;-67
2021/12/18 06:30:02;;;;;;;30.27;15.13;;;3.60;99.90;;;;;;5072077;28;20480;-67
2021/12/18 06:32:29;;;;;;;36.00;16.87;;;3.60;99.90;;;;;;5072106;28;20060;-67
2021/12/18 06:34:56;;;;;;;31.50;15.50;;;3.70;99.90;;;;;;5070664;28;20049;-67
2021/12/18 06:37:24;;;;;;;34.70;16.53;;;3.70;99.90;;;;;;5072170;28;20056;-67
2021/12/18 06:39:52;;;;;;;37.03;16.63;;;3.70;99.90;;;;;;5071855;28;20492;-67
2021/12/18 06:42:19;;;;;;;38.63;17.37;;;3.70;99.90;;;;;;5071892;28;20048;-68
2021/12/18 06:44:46;;;;;;;36.80;16.50;;;3.70;99.90;;;;;;5071569;28;20048;-72
2021/12/18 06:47:13;;;;;;;34.97;16.70;;;3.70;99.90;;;;;;5071801;28;20221;-67
2021/12/18 06:49:40;;;;;;;34.73;16.27;;;3.70;99.90;;;;;;5071449;28;20483;-67
2021/12/18 06:52:07;;;;;;;37.00;17.00;;;3.70;99.90;;;;;;5071547;28;20056;-67
2021/12/18 06:54:35;;;;;;;33.73;16.40;;;3.70;99.90;;;;;;5071378;28;20052;-67
2021/12/18 06:57:03;;;;;;;36.57;16.53;;;3.70;99.90;;;;;;5070716;28;20091;-67
2021/12/18 06:59:30;;;;;;;38.00;16.17;;;3.70;99.90;;;;;;5071501;28;20489;-67
2021/12/18 07:01:57;;;;;;;40.03;17.73;;;3.70;99.90;;;;;;5071721;28;20420;-67
2021/12/18 07:04:25;;;;;;;37.92;17.52;;;3.70;99.90;;;;;;5071171;28;20088;-69
2021/12/18 07:06:52;;;;;;;40.33;18.60;;;3.80;99.90;;;;;;5070489;28;20049;-67
2021/12/18 07:09:20;;;;;;;36.00;16.70;;;3.80;99.90;;;;;;5071480;28;20052;-67
2021/12/18 07:11:48;;;;;;;38.38;18.17;;;3.70;99.90;;;;;;5071587;28;20638;-67
2021/12/18 07:14:15;;;;;;;34.80;17.03;;;3.70;99.90;;;;;;5070970;28;20458;-67
2021/12/18 07:16:42;;;;;;;38.03;16.23;;;3.70;99.90;;;;;;5070604;28;20056;-67
2021/12/18 07:19:09;;;;;;;34.33;16.95;;;3.70;99.90;;;;;;5070832;28;20106;-67
2021/12/18 07:21:36;;;;;;;37.90;16.63;;;3.80;99.90;;;;;;5071078;28;20145;-67
2021/12/18 07:24:04;;;;;;;40.30;17.37;;;3.70;99.90;;;;;;5071148;28;20079;-66
2021/12/18 07:26:32;;;;;;;34.67;16.53;;;3.60;99.90;;;;;;5070434;28;20117;-68
2021/12/18 07:29:00;;;;;;;36.00;17.33;;;3.60;99.90;;;;;;5070452;28;20451;-67
2021/12/18 07:31:27;;;;;;;36.03;18.03;;;3.60;99.90;;;;;;5071024;28;20492;-67
2021/12/18 07:33:54;;;;;;;39.50;18.33;;;3.70;99.90;;;;;;5070793;28;20111;-68
2021/12/18 07:36:21;;;;;;;39.30;18.23;;;3.60;99.90;;;;;;5070491;28;20098;-67
2021/12/18 07:38:49;;;;;;;38.27;17.23;;;3.60;99.90;;;;;;5172853;22;20117;-68
2021/12/18 07:41:16;;;;;;;41.50;18.17;;;3.70;99.90;;;;;;5113121;28;20380;-68
2021/12/18 07:43:43;;;;;;;39.83;17.73;;;3.70;99.90;;;;;;5112721;28;20105;-68
2021/12/18 07:46:12;;;;;;;38.83;18.77;;;3.70;99.90;;;;;;5112033;28;20048;-68
2021/12/18 07:48:39;;;;;;;36.60;17.20;;;3.70;99.90;;;;;;5111542;28;20567;-68
2021/12/18 07:51:06;;;;;;;34.33;15.23;;;3.80;99.90;;;;;;5111751;28;20040;-68
2021/12/18 07:53:33;;;;;;;33.13;15.27;;;3.80;99.90;;;;;;5111466;28;20048;-68
2021/12/18 07:56:01;;;;;;;32.30;15.03;;;3.70;99.90;;;;;;5111080;28;20506;-68
2021/12/18 07:58:28;;;;;;;35.67;15.93;;;3.70;99.90;;;;;;5111782;28;20052;-68
2021/12/18 08:00:55;;;;;;;30.27;14.65;;;3.80;99.90;;;;;;5111583;28;20061;-68
2021/12/18 08:03:24;;;;;;;33.43;15.60;;;3.80;99.90;;;;;;5111155;28;20055;-67
2021/12/18 08:05:51;;;;;;;31.48;15.50;;;3.80;99.90;;;;;;5111300;28;20044;-68
2021/12/18 08:08:18;;;;;;;29.43;14.53;;;3.80;99.90;;;;;;5111788;28;20371;-68
2021/12/18 08:10:45;;;;;;;36.47;15.67;;;3.80;99.90;;;;;;5112188;28;20052;-68
2021/12/18 08:13:12;;;;;;;32.37;15.57;;;3.80;99.90;;;;;;5112573;28;20047;-68
2021/12/18 08:15:39;;;;;;;33.53;15.67;;;3.80;99.90;;;;;;5110835;28;20047;-68
2021/12/18 08:18:07;;;;;;;36.57;16.53;;;3.90;99.90;;;;;;5110277;28;20047;-67
2021/12/18 08:20:36;;;;;;;33.85;15.75;;;3.90;99.90;;;;;;5111246;28;20087;-70
2021/12/18 08:23:04;;;;;;;39.10;18.73;;;4.00;99.90;;;;;;5110991;28;20418;-68
2021/12/18 08:25:32;;;;;;;32.17;16.03;;;4.00;99.90;;;;;;5110085;28;20058;-68
2021/12/18 08:28:00;;;;;;;34.33;15.77;;;4.00;99.90;;;;;;5112071;28;20048;-69
2021/12/18 08:30:27;;;;;;;33.00;14.77;;;4.00;99.90;;;;;;5111226;28;20138;-68
2021/12/18 08:32:55;;;;;;;34.07;15.23;;;4.00;99.90;;;;;;5110687;28;20039;-69
2021/12/18 08:35:25;;;;;;;29.03;14.87;;;4.00;99.90;;;;;;5110193;28;20052;-69
2021/12/18 08:37:53;;;;;;;26.48;13.43;;;4.00;99.90;;;;;;5112320;28;20056;-69
2021/12/18 08:40:21;;;;;;;27.27;13.97;;;4.00;99.90;;;;;;5110575;28;20043;-69
2021/12/18 08:42:48;;;;;;;29.73;14.82;;;3.90;99.90;;;;;;5111247;28;20052;-70
2021/12/18 08:45:16;;;;;;;27.30;13.82;;;4.00;99.90;;;;;;5110460;28;20101;-69
2021/12/18 08:47:44;;;;;;;28.27;13.30;;;4.00;99.90;;;;;;5111245;28;20047;-69
2021/12/18 08:50:16;;;;;;;28.77;13.13;;;4.00;99.90;;;;;;5111081;28;20044;-69
2021/12/18 08:52:43;;;;;;;26.48;12.10;;;4.00;99.90;;;;;;5112386;28;20488;-69
2021/12/18 08:55:12;;;;;;;26.70;11.93;;;4.00;99.90;;;;;;5110503;28;20056;-69
2021/12/18 08:57:40;;;;;;;28.50;11.90;;;4.00;99.90;;;;;;5111534;28;20327;-69
2021/12/18 09:00:10;;;;;;;22.23;11.23;;;4.10;99.90;;;;;;5113272;28;20051;-68
2021/12/18 09:02:37;;;;;;;23.87;11.67;;;4.10;99.90;;;;;;5114353;28;20094;-69
2021/12/18 09:05:05;;;;;;;21.45;10.88;;;4.10;99.90;;;;;;5123904;28;20135;-69
2021/12/18 09:07:32;;;;;;;26.45;12.30;;;4.10;99.90;;;;;;5124602;28;20048;-69
2021/12/18 09:10:00;;;;;;;24.38;12.68;;;4.10;99.90;;;;;;5120116;28;20453;-69
2021/12/18 09:12:28;;;;;;;22.65;10.93;;;4.10;99.90;;;;;;5115716;28;20074;-69
2021/12/18 09:14:55;;;;;;;24.40;11.60;;;4.10;99.90;;;;;;5117677;28;20059;-69
2021/12/18 09:17:22;;;;;;;23.33;11.90;;;3.80;99.90;;;;;;5114059;28;20548;-69
2021/12/18 09:19:50;;;;;;;25.88;11.40;;;3.90;99.90;;;;;;5114844;28;20048;-68
2021/12/18 09:22:18;;;;;;;31.90;11.63;;;3.90;99.90;;;;;;5111612;28;20059;-69
2021/12/18 09:24:45;;;;;;;22.77;11.23;;;4.10;99.90;;;;;;5111666;28;20058;-69
2021/12/18 09:27:12;;;;;;;23.43;10.93;;;4.10;99.90;;;;;;5112037;28;20051;-69
2021/12/18 09:29:40;;;;;;;21.53;10.93;;;4.10;99.90;;;;;;5111507;28;20048;-68
2021/12/18 09:32:08;;;;;;;22.90;10.53;;;4.10;99.90;;;;;;5114971;28;20388;-69
2021/12/18 09:34:35;;;;;;;24.87;11.53;;;4.10;99.90;;;;;;5116070;28;20470;-68
2021/12/18 09:37:02;;;;;;;22.85;11.43;;;4.20;99.90;;;;;;5114804;28;20047;-69
2021/12/18 09:39:30;;;;;;;28.37;12.37;;;4.20;99.90;;;;;;5114830;28;20070;-69
2021/12/18 09:41:57;;;;;;;25.07;11.40;;;4.20;99.90;;;;;;5115282;28;20100;-69
2021/12/18 09:44:25;;;;;;;28.25;11.90;;;4.20;99.90;;;;;;5106588;28;20172;-69
2021/12/18 09:46:55;;;;;;;25.75;12.02;;;4.20;99.90;;;;;;5113747;28;20043;-69
2021/12/18 09:49:22;;;;;;;26.75;12.27;;;4.20;99.90;;;;;;5114331;28;20087;-69
2021/12/18 09:51:49;;;;;;;27.70;12.02;;;4.30;99.90;;;;;;5114486;28;20108;-69
2021/12/18 09:54:18;;;;;;;25.88;12.63;;;4.30;99.90;;;;;;5114740;28;20495;-69
2021/12/18 09:56:46;;;;;;;23.23;10.98;;;4.30;99.90;;;;;;5112966;28;20051;-69
2021/12/18 09:59:13;;;;;;;20.95;10.38;;;4.30;99.90;;;;;;5113915;28;20043;-69
2021/12/18 10:01:41;;;;;;;19.45;9.93;;;4.20;99.90;;;;;;5113762;28;20101;-69
2021/12/18 10:04:28;;;;;;;20.08;10.10;;;4.30;99.90;;;;;;5114060;28;20101;-69
2021/12/18 10:06:57;;;;;;;22.98;10.10;;;4.30;99.90;;;;;;5113169;28;20117;-68
2021/12/18 10:09:34;;;;;;;17.30;8.65;;;4.30;99.90;;;;;;5113795;28;20105;-68
2021/12/18 10:12:03;;;;;;;21.67;10.52;;;4.20;99.90;;;;;;5113628;28;20062;-69
2021/12/18 10:14:36;;;;;;;19.67;9.20;;;4.30;99.90;;;;;;5113516;28;20557;-69
2021/12/18 10:17:04;;;;;;;19.35;10.25;;;4.30;99.90;;;;;;5111765;28;20491;-69
2021/12/18 10:19:35;;;;;;;20.15;10.27;;;4.30;99.90;;;;;;5113992;28;20043;-69
2021/12/18 10:22:06;;;;;;;19.45;9.57;;;4.40;99.90;;;;;;5113620;28;20043;-68
2021/12/18 10:24:34;;;;;;;18.38;8.57;;;4.40;99.90;;;;;;5112984;28;20108;-69
2021/12/18 10:27:02;;;;;;;20.02;9.02;;;4.50;99.90;;;;;;5112498;28;20483;-69
2021/12/18 10:29:33;;;;;;;19.58;9.63;;;4.50;99.90;;;;;;5113210;28;20134;-69
2021/12/18 10:32:09;;;;;;;14.95;7.45;;;4.50;99.90;;;;;;5113312;28;20134;-69
2021/12/18 10:34:39;;;;;;;16.47;8.17;;;4.50;99.90;;;;;;5113811;28;20047;-69
2021/12/18 10:37:18;;;;;;;18.73;8.98;;;4.50;99.90;;;;;;5112778;28;20665;-69
2021/12/18 10:39:56;;;;;;;21.60;10.25;;;4.60;99.90;;;;;;5112694;28;20051;-70
2021/12/18 10:42:26;;;;;;;24.60;11.02;;;4.60;99.90;;;;;;5111831;28;20105;-69
2021/12/18 10:45:08;;;;;;;20.80;10.65;;;4.60;99.90;;;;;;5112902;28;20492;-69
2021/12/18 10:47:46;;;;;;;23.77;11.70;;;4.60;99.90;;;;;;5112953;28;20097;-69
2021/12/18 10:50:27;;;;;;;20.55;10.43;;;4.60;99.90;;;;;;5112459;28;20113;-69
2021/12/18 10:53:00;;;;;;;25.02;11.98;;;4.70;99.90;;;;;;5113030;28;20067;-69
2021/12/18 10:55:29;;;;;;;25.23;11.18;;;4.70;99.90;;;;;;5111920;28;20101;-69
2021/12/18 10:57:56;;;;;;;22.23;11.20;;;4.70;99.90;;;;;;5113051;28;20090;-69
2021/12/18 11:00:46;;;;;;;20.42;11.07;;;4.70;99.90;;;;;;5112537;28;20450;-69
2021/12/18 11:03:34;;;;;;;26.38;11.68;;;4.70;99.90;;;;;;5113290;28;20047;-69
2021/12/18 11:06:20;;;;;;;21.55;11.30;;;4.70;99.90;;;;;;5112317;28;20105;-69
2021/12/18 11:08:55;;;;;;;23.17;11.65;;;4.70;99.90;;;;;;5112724;28;20054;-69
2021/12/18 11:14:06;;;;;;;24.88;11.98;;;4.70;99.90;;;;;;5078160;28;20044;-69
2021/12/18 11:16:35;;;;;;;25.33;12.30;;;4.30;99.90;;;;;;5111762;28;20044;-69
2021/12/18 11:19:04;;;;;;;23.88;12.35;;;4.40;99.90;;;;;;5112324;28;20068;-69
2021/12/18 11:21:34;;;;;;;21.05;10.30;;;4.50;99.90;;;;;;5111718;28;20063;-69
2021/12/18 11:24:04;;;;;;;17.05;7.90;;;4.60;99.90;;;;;;5112648;28;20055;-69
2021/12/18 11:26:36;;;;;;;15.32;7.65;;;4.60;99.90;;;;;;5111572;28;20047;-69
2021/12/18 11:29:04;;;;;;;14.05;6.75;;;4.50;99.90;;;;;;5112083;28;20087;-69
2021/12/18 11:31:33;;;;;;;12.07;6.15;;;4.30;99.90;;;;;;5111897;28;20054;-69
2021/12/18 11:34:02;;;;;;;13.02;6.57;;;4.20;99.90;;;;;;5111763;28;20421;-69
2021/12/18 11:36:30;;;;;;;14.10;6.13;;;4.20;99.90;;;;;;5113165;28;20052;-69
2021/12/18 11:38:58;;;;;;;15.82;6.43;;;4.20;99.90;;;;;;5115046;28;20438;-69
2021/12/18 11:41:26;;;;;;;14.60;6.47;;;4.30;99.90;;;;;;5116946;28;20052;-69
2021/12/18 11:43:53;;;;;;;13.65;6.70;;;4.50;99.90;;;;;;5119847;28;20040;-69
2021/12/18 11:46:32;;;;;;;16.85;8.60;;;4.40;99.90;;;;;;5111358;28;20051;-69
2021/12/18 11:49:01;;;;;;;16.55;8.95;;;4.20;99.90;;;;;;5116931;28;20090;-68
2021/12/18 11:51:29;;;;;;;16.35;7.95;;;4.20;99.90;;;;;;5111453;28;20097;-69
2021/12/18 11:53:56;;;;;;;16.58;7.72;;;4.30;99.90;;;;;;5111832;28;20492;-69
2021/12/18 11:56:25;;;;;;;16.73;8.05;;;4.30;99.90;;;;;;5111411;28;20047;-69
2021/12/18 11:58:53;;;;;;;17.10;7.97;;;4.40;99.90;;;;;;5112029;28;20083;-70
2021/12/18 12:01:25;;;;;;;15.95;7.95;;;4.30;99.90;;;;;;5112139;28;20051;-69
2021/12/18 12:04:00;;;;;;;13.88;7.18;;;4.10;99.90;;;;;;5112150;28;20047;-68
2021/12/18 12:06:30;;;;;;;19.83;10.23;;;4.10;99.90;;;;;;5111246;28;20314;-69
2021/12/18 12:09:24;;;;;;;23.27;11.00;;;4.20;99.90;;;;;;5112332;28;20051;-69
2021/12/18 12:11:55;;;;;;;26.20;11.43;;;4.10;99.90;;;;;;5112193;28;20062;-69
2021/12/18 12:14:24;;;;;;;21.80;11.02;;;4.20;99.90;;;;;;5111336;28;20089;-70
2021/12/18 12:17:10;;;;;;;23.63;11.38;;;4.20;99.90;;;;;;5110999;28;20560;-69
2021/12/18 12:20:02;;;;;;;25.42;11.65;;;4.20;99.90;;;;;;5111616;28;20573;-68
2021/12/18 12:22:53;;;;;;;31.40;12.68;;;4.30;99.90;;;;;;5111579;28;20149;-68
2021/12/18 12:25:37;;;;;;;30.65;11.68;;;4.20;99.90;;;;;;5111435;28;20419;-68
2021/12/18 12:28:07;;;;;;;19.00;9.02;;;4.20;99.90;;;;;;5111200;28;20051;-68
2021/12/18 12:30:43;;;;;;;21.30;9.63;;;4.20;99.90;;;;;;5111382;28;20059;-68
2021/12/18 12:33:12;;;;;;;19.75;10.00;;;4.00;99.90;;;;;;5111366;28;20047;-68
2021/12/18 12:36:14;;;;;;;21.15;10.25;;;3.90;99.90;;;;;;5110235;28;20101;-68
2021/12/18 12:38:53;;;;;;;19.93;9.87;;;4.10;99.90;;;;;;5110647;28;20047;-68
2021/12/18 12:41:30;;;;;;;22.83;10.00;;;4.10;99.90;;;;;;5111254;28;20065;-68
2021/12/18 12:44:02;;;;;;;20.40;9.60;;;4.10;99.90;;;;;;5110795;28;20403;-68
2021/12/18 12:46:30;;;;;;;23.58;10.38;;;4.00;99.90;;;;;;5110182;28;20077;-68
2021/12/18 12:49:06;;;;;;;20.73;9.63;;;4.00;99.90;;;;;;5110586;28;20097;-68
2021/12/18 12:52:16;;;;;;;23.70;11.18;;;4.00;99.90;;;;;;5111069;28;20101;-68
2021/12/18 12:55:02;;;;;;;18.63;9.20;;;4.10;99.90;;;;;;5112586;28;20113;-67
2021/12/18 12:57:50;;;;;;;19.40;9.07;;;4.00;99.90;;;;;;5110908;28;20059;-67
2021/12/18 13:00:42;;;;;;;20.05;9.75;;;4.00;99.90;;;;;;5110780;28;20455;-68
2021/12/18 13:03:34;;;;;;;23.08;10.00;;;3.90;99.90;;;;;;5111946;28;20121;-67
2021/12/18 13:06:06;;;;;;;19.95;10.15;;;3.90;99.90;;;;;;5109634;28;20055;-67
2021/12/18 13:08:36;;;;;;;23.05;11.23;;;3.90;99.90;;;;;;5111053;28;20052;-68
2021/12/18 13:11:03;;;;;;;20.38;9.75;;;3.90;99.90;;;;;;5111726;28;20082;-68
2021/12/18 13:13:32;;;;;;;20.38;9.88;;;3.90;99.90;;;;;;5111617;28;20054;-67
2021/12/18 13:16:06;;;;;;;21.67;10.52;;;4.00;99.90;;;;;;5112185;28;20051;-67
2021/12/18 13:18:36;;;;;;;18.77;9.03;;;3.90;99.90;;;;;;5112101;28;20052;-67
2021/12/18 13:21:06;;;;;;;20.73;10.27;;;3.80;99.90;;;;;;5111167;28;20048;-67
2021/12/18 13:23:58;;;;;;;19.50;9.23;;;3.80;99.90;;;;;;5110944;28;20517;-67
2021/12/18 13:26:30;;;;;;;20.13;10.02;;;3.80;99.90;;;;;;5110078;28;20465;-69
2021/12/18 13:29:00;;;;;;;19.08;8.95;;;3.70;99.90;;;;;;5111188;28;20365;-68
2021/12/18 13:31:33;;;;;;;19.20;9.70;;;3.70;99.90;;;;;;5111765;28;20364;-67